sensor_id;sensor_type;location;lat;lon;timestamp;P1;durP1;ratioP1;P2;durP2;ratioP2
58992;SDS011;44782;0.000;0.000;2023-03-03T00:00:20;7.43;;;6.80;;
58992;SDS011;44782;0.000;0.000;2023-03-03T00:02:36;7.10;;;6.50;;
58992;SDS011;44782;0.000;0.000;2023-03-03T00:04:52;8.20;;;7.47;;
58992;SDS011;44782;0.000;0.000;2023-03-03T00:07:08;7.93;;;7.23;;
58992;SDS011;44782;0.000;0.000;2023-03-03T00:09:25;9.07;;;8.17;;
58992;SDS011;44782;0.000;0.000;2023-03-03T00:11:40;9.10;;;8.30;;
58992;SDS011;44782;0.000;0.000;2023-03-03T00:13:56;8.53;;;7.73;;
58992;SDS011;44782;0.000;0.000;2023-03-03T00:16:13;9.17;;;8.33;;
58992;SDS011;44782;0.000;0.000;2023-03-03T00:19:16;9.13;;;8.33;;
58992;SDS011;44782;0.000;0.000;2023-03-03T00:21:40;8.87;;;8.07;;
58992;SDS011;44782;0.000;0.000;2023-03-03T00:26:36;9.80;;;8.90;;
58992;SDS011;44782;0.000;0.000;2023-03-03T00:28:52;9.17;;;8.37;;
58992;SDS011;44782;0.000;0.000;2023-03-03T00:31:15;9.43;;;8.60;;
58992;SDS011;44782;0.000;0.000;2023-03-03T00:33:35;9.23;;;8.43;;
58992;SDS011;44782;0.000;0.000;2023-03-03T00:36:09;9.87;;;9.03;;
58992;SDS011;44782;0.000;0.000;2023-03-03T00:38:29;9.50;;;8.70;;
58992;SDS011;44782;0.000;0.000;2023-03-03T00:40:49;9.63;;;8.77;;
58992;SDS011;44782;0.000;0.000;2023-03-03T00:43:22;10.97;;;10.00;;
58992;SDS011;44782;0.000;0.000;2023-03-03T00:48:15;10.30;;;9.40;;
58992;SDS011;44782;0.000;0.000;2023-03-03T00:50:43;11.20;;;10.20;;
58992;SDS011;44782;0.000;0.000;2023-03-03T00:53:03;11.23;;;10.23;;
58992;SDS011;44782;0.000;0.000;2023-03-03T00:55:21;10.77;;;9.77;;
58992;SDS011;44782;0.000;0.000;2023-03-03T00:57:37;11.17;;;10.10;;
58992;SDS011;44782;0.000;0.000;2023-03-03T00:59:52;10.60;;;9.60;;
58992;SDS011;44782;0.000;0.000;2023-03-03T01:02:08;11.40;;;10.40;;
58992;SDS011;44782;0.000;0.000;2023-03-03T01:04:24;11.37;;;10.27;;
58992;SDS011;44782;0.000;0.000;2023-03-03T01:06:39;10.83;;;9.83;;
58992;SDS011;44782;0.000;0.000;2023-03-03T01:08:55;11.97;;;10.97;;
58992;SDS011;44782;0.000;0.000;2023-03-03T01:11:20;11.67;;;10.57;;
58992;SDS011;44782;0.000;0.000;2023-03-03T01:13:39;12.07;;;10.97;;
58992;SDS011;44782;0.000;0.000;2023-03-03T01:15:57;11.93;;;10.83;;
58992;SDS011;44782;0.000;0.000;2023-03-03T01:18:13;11.50;;;10.50;;
58992;SDS011;44782;0.000;0.000;2023-03-03T01:20:29;12.03;;;10.93;;
58992;SDS011;44782;0.000;0.000;2023-03-03T01:22:45;11.57;;;10.50;;
58992;SDS011;44782;0.000;0.000;2023-03-03T01:25:01;11.80;;;10.70;;
58992;SDS011;44782;0.000;0.000;2023-03-03T01:27:19;12.33;;;11.13;;
58992;SDS011;44782;0.000;0.000;2023-03-03T01:29:35;11.90;;;10.80;;
58992;SDS011;44782;0.000;0.000;2023-03-03T01:31:51;12.10;;;11.00;;
58992;SDS011;44782;0.000;0.000;2023-03-03T01:34:06;12.23;;;10.93;;
58992;SDS011;44782;0.000;0.000;2023-03-03T01:36:23;11.87;;;10.73;;
58992;SDS011;44782;0.000;0.000;2023-03-03T01:38:39;11.33;;;10.27;;
58992;SDS011;44782;0.000;0.000;2023-03-03T01:40:56;11.80;;;10.73;;
58992;SDS011;44782;0.000;0.000;2023-03-03T01:43:13;12.00;;;11.00;;
58992;SDS011;44782;0.000;0.000;2023-03-03T01:48:05;12.27;;;11.17;;
58992;SDS011;44782;0.000;0.000;2023-03-03T01:51:13;12.23;;;11.10;;
58992;SDS011;44782;0.000;0.000;2023-03-03T01:53:13;12.33;;;11.23;;
58992;SDS011;44782;0.000;0.000;2023-03-03T01:55:33;12.63;;;11.53;;
58992;SDS011;44782;0.000;0.000;2023-03-03T01:57:53;12.27;;;11.17;;
58992;SDS011;44782;0.000;0.000;2023-03-03T02:00:13;12.93;;;11.73;;
58992;SDS011;44782;0.000;0.000;2023-03-03T02:02:29;13.23;;;12.03;;
58992;SDS011;44782;0.000;0.000;2023-03-03T02:04:46;12.70;;;11.60;;
58992;SDS011;44782;0.000;0.000;2023-03-03T02:07:04;13.43;;;12.23;;
58992;SDS011;44782;0.000;0.000;2023-03-03T02:09:29;12.73;;;11.57;;
58992;SDS011;44782;0.000;0.000;2023-03-03T02:12:10;13.30;;;12.10;;
58992;SDS011;44782;0.000;0.000;2023-03-03T02:14:28;13.13;;;12.00;;
58992;SDS011;44782;0.000;0.000;2023-03-03T02:16:44;13.47;;;12.27;;
58992;SDS011;44782;0.000;0.000;2023-03-03T02:19:00;13.37;;;12.17;;
58992;SDS011;44782;0.000;0.000;2023-03-03T02:21:20;13.27;;;12.00;;
58992;SDS011;44782;0.000;0.000;2023-03-03T02:26:36;13.20;;;12.03;;
58992;SDS011;44782;0.000;0.000;2023-03-03T02:28:55;13.33;;;12.13;;
58992;SDS011;44782;0.000;0.000;2023-03-03T02:31:12;13.50;;;12.30;;
58992;SDS011;44782;0.000;0.000;2023-03-03T02:33:30;13.77;;;12.53;;
58992;SDS011;44782;0.000;0.000;2023-03-03T02:35:46;13.87;;;12.57;;
58992;SDS011;44782;0.000;0.000;2023-03-03T02:40:36;12.97;;;11.77;;
58992;SDS011;44782;0.000;0.000;2023-03-03T02:42:58;13.27;;;12.13;;
58992;SDS011;44782;0.000;0.000;2023-03-03T02:45:17;13.07;;;11.87;;
58992;SDS011;44782;0.000;0.000;2023-03-03T02:47:33;13.63;;;12.33;;
58992;SDS011;44782;0.000;0.000;2023-03-03T02:49:49;13.00;;;11.87;;
58992;SDS011;44782;0.000;0.000;2023-03-03T02:52:05;13.50;;;12.30;;
58992;SDS011;44782;0.000;0.000;2023-03-03T02:54:26;13.17;;;11.97;;
58992;SDS011;44782;0.000;0.000;2023-03-03T02:56:45;12.93;;;11.77;;
58992;SDS011;44782;0.000;0.000;2023-03-03T02:59:01;13.83;;;12.50;;
58992;SDS011;44782;0.000;0.000;2023-03-03T03:01:18;13.53;;;12.33;;
58992;SDS011;44782;0.000;0.000;2023-03-03T03:03:34;13.53;;;12.23;;
58992;SDS011;44782;0.000;0.000;2023-03-03T03:05:50;13.67;;;12.37;;
58992;SDS011;44782;0.000;0.000;2023-03-03T03:08:06;13.63;;;12.37;;
58992;SDS011;44782;0.000;0.000;2023-03-03T03:10:21;13.53;;;12.27;;
58992;SDS011;44782;0.000;0.000;2023-03-03T03:12:37;13.73;;;12.53;;
58992;SDS011;44782;0.000;0.000;2023-03-03T03:14:53;12.80;;;11.60;;
58992;SDS011;44782;0.000;0.000;2023-03-03T03:17:09;12.60;;;11.43;;
58992;SDS011;44782;0.000;0.000;2023-03-03T03:19:26;12.33;;;11.23;;
58992;SDS011;44782;0.000;0.000;2023-03-03T03:21:43;13.70;;;12.40;;
58992;SDS011;44782;0.000;0.000;2023-03-03T03:23:59;13.07;;;11.87;;
58992;SDS011;44782;0.000;0.000;2023-03-03T03:26:15;13.17;;;11.97;;
58992;SDS011;44782;0.000;0.000;2023-03-03T03:28:31;13.83;;;12.63;;
58992;SDS011;44782;0.000;0.000;2023-03-03T03:30:49;14.10;;;12.80;;
58992;SDS011;44782;0.000;0.000;2023-03-03T03:33:06;13.70;;;12.40;;
58992;SDS011;44782;0.000;0.000;2023-03-03T03:35:22;13.33;;;12.07;;
58992;SDS011;44782;0.000;0.000;2023-03-03T03:37:38;13.53;;;12.33;;
58992;SDS011;44782;0.000;0.000;2023-03-03T03:39:54;13.03;;;11.83;;
58992;SDS011;44782;0.000;0.000;2023-03-03T03:42:10;13.87;;;12.57;;
58992;SDS011;44782;0.000;0.000;2023-03-03T03:44:25;13.33;;;12.13;;
58992;SDS011;44782;0.000;0.000;2023-03-03T03:46:41;13.83;;;12.50;;
58992;SDS011;44782;0.000;0.000;2023-03-03T03:48:57;13.80;;;12.60;;
58992;SDS011;44782;0.000;0.000;2023-03-03T03:51:13;13.93;;;12.67;;
58992;SDS011;44782;0.000;0.000;2023-03-03T03:53:28;13.40;;;12.20;;
58992;SDS011;44782;0.000;0.000;2023-03-03T03:55:44;13.40;;;12.20;;
58992;SDS011;44782;0.000;0.000;2023-03-03T03:58:00;13.83;;;12.43;;
58992;SDS011;44782;0.000;0.000;2023-03-03T04:00:16;13.17;;;11.83;;
58992;SDS011;44782;0.000;0.000;2023-03-03T04:02:32;13.33;;;12.10;;
58992;SDS011;44782;0.000;0.000;2023-03-03T04:04:47;13.47;;;12.27;;
58992;SDS011;44782;0.000;0.000;2023-03-03T04:07:03;13.57;;;12.27;;
58992;SDS011;44782;0.000;0.000;2023-03-03T04:09:19;13.90;;;12.60;;
58992;SDS011;44782;0.000;0.000;2023-03-03T04:11:34;13.17;;;11.93;;
58992;SDS011;44782;0.000;0.000;2023-03-03T04:13:50;13.07;;;11.87;;
58992;SDS011;44782;0.000;0.000;2023-03-03T04:16:06;13.83;;;12.50;;
58992;SDS011;44782;0.000;0.000;2023-03-03T04:18:21;12.83;;;11.73;;
58992;SDS011;44782;0.000;0.000;2023-03-03T04:20:38;12.57;;;11.37;;
58992;SDS011;44782;0.000;0.000;2023-03-03T04:22:54;13.23;;;11.93;;
58992;SDS011;44782;0.000;0.000;2023-03-03T04:25:11;13.30;;;12.10;;
58992;SDS011;44782;0.000;0.000;2023-03-03T04:27:33;13.60;;;12.40;;
58992;SDS011;44782;0.000;0.000;2023-03-03T04:29:49;13.83;;;12.53;;
58992;SDS011;44782;0.000;0.000;2023-03-03T04:32:05;13.13;;;11.93;;
58992;SDS011;44782;0.000;0.000;2023-03-03T04:34:21;12.67;;;11.57;;
58992;SDS011;44782;0.000;0.000;2023-03-03T04:36:36;12.63;;;11.53;;
58992;SDS011;44782;0.000;0.000;2023-03-03T04:38:52;12.43;;;11.33;;
58992;SDS011;44782;0.000;0.000;2023-03-03T04:41:08;13.33;;;12.10;;
58992;SDS011;44782;0.000;0.000;2023-03-03T04:43:23;12.80;;;11.60;;
58992;SDS011;44782;0.000;0.000;2023-03-03T04:45:39;12.70;;;11.60;;
58992;SDS011;44782;0.000;0.000;2023-03-03T04:47:55;12.67;;;11.47;;
58992;SDS011;44782;0.000;0.000;2023-03-03T04:50:10;12.10;;;11.00;;
58992;SDS011;44782;0.000;0.000;2023-03-03T04:52:26;13.07;;;11.90;;
58992;SDS011;44782;0.000;0.000;2023-03-03T04:54:42;12.77;;;11.57;;
58992;SDS011;44782;0.000;0.000;2023-03-03T04:56:58;12.57;;;11.40;;
58992;SDS011;44782;0.000;0.000;2023-03-03T04:59:13;12.00;;;10.90;;
58992;SDS011;44782;0.000;0.000;2023-03-03T05:01:29;12.10;;;11.00;;
58992;SDS011;44782;0.000;0.000;2023-03-03T05:03:45;12.50;;;11.40;;
58992;SDS011;44782;0.000;0.000;2023-03-03T05:06:00;12.47;;;11.37;;
58992;SDS011;44782;0.000;0.000;2023-03-03T05:08:16;11.93;;;10.93;;
58992;SDS011;44782;0.000;0.000;2023-03-03T05:10:32;11.90;;;10.80;;
58992;SDS011;44782;0.000;0.000;2023-03-03T05:12:47;12.07;;;10.97;;
58992;SDS011;44782;0.000;0.000;2023-03-03T05:15:03;11.70;;;10.70;;
58992;SDS011;44782;0.000;0.000;2023-03-03T05:17:19;12.03;;;10.93;;
58992;SDS011;44782;0.000;0.000;2023-03-03T05:19:35;12.17;;;11.07;;
58992;SDS011;44782;0.000;0.000;2023-03-03T05:21:50;11.73;;;10.63;;
58992;SDS011;44782;0.000;0.000;2023-03-03T05:24:10;11.40;;;10.40;;
58992;SDS011;44782;0.000;0.000;2023-03-03T05:26:26;12.17;;;11.07;;
58992;SDS011;44782;0.000;0.000;2023-03-03T05:28:42;11.50;;;10.50;;
58992;SDS011;44782;0.000;0.000;2023-03-03T05:30:57;12.33;;;11.23;;
58992;SDS011;44782;0.000;0.000;2023-03-03T05:33:14;11.90;;;10.80;;
58992;SDS011;44782;0.000;0.000;2023-03-03T05:35:30;12.20;;;11.10;;
58992;SDS011;44782;0.000;0.000;2023-03-03T05:37:46;11.97;;;10.93;;
58992;SDS011;44782;0.000;0.000;2023-03-03T05:40:03;11.70;;;10.70;;
58992;SDS011;44782;0.000;0.000;2023-03-03T05:42:19;11.87;;;10.80;;
58992;SDS011;44782;0.000;0.000;2023-03-03T05:44:35;12.23;;;11.13;;
58992;SDS011;44782;0.000;0.000;2023-03-03T05:46:51;11.50;;;10.50;;
58992;SDS011;44782;0.000;0.000;2023-03-03T05:49:07;12.07;;;10.97;;
58992;SDS011;44782;0.000;0.000;2023-03-03T05:51:23;12.40;;;11.27;;
58992;SDS011;44782;0.000;0.000;2023-03-03T05:53:38;12.10;;;10.97;;
58992;SDS011;44782;0.000;0.000;2023-03-03T05:55:54;12.60;;;11.50;;
58992;SDS011;44782;0.000;0.000;2023-03-03T05:58:10;11.70;;;10.70;;
58992;SDS011;44782;0.000;0.000;2023-03-03T06:00:26;12.17;;;11.07;;
58992;SDS011;44782;0.000;0.000;2023-03-03T06:02:42;11.83;;;10.83;;
58992;SDS011;44782;0.000;0.000;2023-03-03T06:04:57;12.07;;;10.97;;
58992;SDS011;44782;0.000;0.000;2023-03-03T06:07:13;12.90;;;11.70;;
58992;SDS011;44782;0.000;0.000;2023-03-03T06:09:29;12.57;;;11.37;;
58992;SDS011;44782;0.000;0.000;2023-03-03T06:11:44;12.20;;;11.10;;
58992;SDS011;44782;0.000;0.000;2023-03-03T06:14:00;12.30;;;11.20;;
58992;SDS011;44782;0.000;0.000;2023-03-03T06:16:16;12.13;;;11.03;;
58992;SDS011;44782;0.000;0.000;2023-03-03T06:18:32;12.53;;;11.37;;
58992;SDS011;44782;0.000;0.000;2023-03-03T06:20:53;12.60;;;11.40;;
58992;SDS011;44782;0.000;0.000;2023-03-03T06:23:09;11.97;;;10.97;;
58992;SDS011;44782;0.000;0.000;2023-03-03T06:25:25;11.63;;;10.63;;
58992;SDS011;44782;0.000;0.000;2023-03-03T06:27:41;12.63;;;11.43;;
58992;SDS011;44782;0.000;0.000;2023-03-03T06:29:56;12.63;;;11.53;;
58992;SDS011;44782;0.000;0.000;2023-03-03T06:32:12;12.63;;;11.53;;
58992;SDS011;44782;0.000;0.000;2023-03-03T06:34:28;12.70;;;11.50;;
58992;SDS011;44782;0.000;0.000;2023-03-03T06:36:43;12.03;;;10.93;;
58992;SDS011;44782;0.000;0.000;2023-03-03T06:38:59;12.27;;;11.23;;
58992;SDS011;44782;0.000;0.000;2023-03-03T06:41:15;12.87;;;11.67;;
58992;SDS011;44782;0.000;0.000;2023-03-03T06:43:35;12.23;;;11.23;;
58992;SDS011;44782;0.000;0.000;2023-03-03T06:45:51;12.40;;;11.30;;
58992;SDS011;44782;0.000;0.000;2023-03-03T06:48:07;12.50;;;11.40;;
58992;SDS011;44782;0.000;0.000;2023-03-03T06:50:22;12.70;;;11.53;;
58992;SDS011;44782;0.000;0.000;2023-03-03T06:52:38;12.53;;;11.43;;
58992;SDS011;44782;0.000;0.000;2023-03-03T06:54:57;12.40;;;11.30;;
58992;SDS011;44782;0.000;0.000;2023-03-03T06:57:25;12.57;;;11.47;;
58992;SDS011;44782;0.000;0.000;2023-03-03T06:59:46;12.80;;;11.70;;
58992;SDS011;44782;0.000;0.000;2023-03-03T07:02:11;13.00;;;11.80;;
58992;SDS011;44782;0.000;0.000;2023-03-03T07:04:31;12.90;;;11.80;;
58992;SDS011;44782;0.000;0.000;2023-03-03T07:06:48;12.53;;;11.43;;
58992;SDS011;44782;0.000;0.000;2023-03-03T07:09:05;12.57;;;11.47;;
58992;SDS011;44782;0.000;0.000;2023-03-03T07:11:29;12.87;;;11.67;;
58992;SDS011;44782;0.000;0.000;2023-03-03T07:13:46;12.40;;;11.37;;
58992;SDS011;44782;0.000;0.000;2023-03-03T07:16:05;13.03;;;11.83;;
58992;SDS011;44782;0.000;0.000;2023-03-03T07:18:34;12.77;;;11.67;;
58992;SDS011;44782;0.000;0.000;2023-03-03T07:20:53;13.67;;;12.47;;
58992;SDS011;44782;0.000;0.000;2023-03-03T07:23:13;13.07;;;11.87;;
58992;SDS011;44782;0.000;0.000;2023-03-03T07:25:38;13.07;;;11.93;;
58992;SDS011;44782;0.000;0.000;2023-03-03T07:27:55;14.60;;;13.30;;
58992;SDS011;44782;0.000;0.000;2023-03-03T07:30:32;12.93;;;11.83;;
58992;SDS011;44782;0.000;0.000;2023-03-03T07:32:48;12.70;;;11.60;;
58992;SDS011;44782;0.000;0.000;2023-03-03T07:37:53;12.87;;;11.67;;
58992;SDS011;44782;0.000;0.000;2023-03-03T07:42:52;11.23;;;10.23;;
58992;SDS011;44782;0.000;0.000;2023-03-03T07:47:41;12.03;;;10.93;;
58992;SDS011;44782;0.000;0.000;2023-03-03T07:49:58;11.67;;;10.67;;
58992;SDS011;44782;0.000;0.000;2023-03-03T07:52:30;10.70;;;9.80;;
58992;SDS011;44782;0.000;0.000;2023-03-03T07:54:54;11.27;;;10.27;;
58992;SDS011;44782;0.000;0.000;2023-03-03T07:57:20;10.60;;;9.70;;
58992;SDS011;44782;0.000;0.000;2023-03-03T07:59:37;10.27;;;9.37;;
58992;SDS011;44782;0.000;0.000;2023-03-03T08:01:59;9.93;;;9.03;;
58992;SDS011;44782;0.000;0.000;2023-03-03T08:04:20;9.03;;;8.23;;
58992;SDS011;44782;0.000;0.000;2023-03-03T08:06:41;9.70;;;8.80;;
58992;SDS011;44782;0.000;0.000;2023-03-03T08:09:47;8.97;;;8.17;;
58992;SDS011;44782;0.000;0.000;2023-03-03T08:11:46;9.00;;;8.20;;
58992;SDS011;44782;0.000;0.000;2023-03-03T08:14:10;8.70;;;8.00;;
58992;SDS011;44782;0.000;0.000;2023-03-03T08:16:33;8.80;;;8.00;;
58992;SDS011;44782;0.000;0.000;2023-03-03T08:18:52;8.27;;;7.57;;
58992;SDS011;44782;0.000;0.000;2023-03-03T08:23:26;7.97;;;7.27;;
58992;SDS011;44782;0.000;0.000;2023-03-03T08:25:42;7.63;;;6.93;;
58992;SDS011;44782;0.000;0.000;2023-03-03T08:27:58;7.93;;;7.23;;
58992;SDS011;44782;0.000;0.000;2023-03-03T08:30:14;7.70;;;7.10;;
58992;SDS011;44782;0.000;0.000;2023-03-03T08:32:30;7.30;;;6.70;;
58992;SDS011;44782;0.000;0.000;2023-03-03T08:34:46;7.50;;;6.80;;
58992;SDS011;44782;0.000;0.000;2023-03-03T08:37:01;7.47;;;6.87;;
58992;SDS011;44782;0.000;0.000;2023-03-03T08:39:17;7.37;;;6.70;;
58992;SDS011;44782;0.000;0.000;2023-03-03T08:41:32;7.53;;;6.90;;
58992;SDS011;44782;0.000;0.000;2023-03-03T08:43:48;7.17;;;6.47;;
58992;SDS011;44782;0.000;0.000;2023-03-03T08:46:04;6.80;;;6.20;;
58992;SDS011;44782;0.000;0.000;2023-03-03T08:48:21;6.40;;;5.80;;
58992;SDS011;44782;0.000;0.000;2023-03-03T08:50:36;6.70;;;6.00;;
58992;SDS011;44782;0.000;0.000;2023-03-03T08:52:53;6.70;;;6.10;;
58992;SDS011;44782;0.000;0.000;2023-03-03T08:55:08;5.90;;;5.40;;
58992;SDS011;44782;0.000;0.000;2023-03-03T08:57:24;6.00;;;5.50;;
58992;SDS011;44782;0.000;0.000;2023-03-03T08:59:40;5.80;;;5.30;;
58992;SDS011;44782;0.000;0.000;2023-03-03T09:01:55;5.60;;;5.20;;
58992;SDS011;44782;0.000;0.000;2023-03-03T09:04:11;5.83;;;5.33;;
58992;SDS011;44782;0.000;0.000;2023-03-03T09:06:27;6.10;;;5.60;;
58992;SDS011;44782;0.000;0.000;2023-03-03T09:08:42;5.60;;;5.17;;
58992;SDS011;44782;0.000;0.000;2023-03-03T09:10:58;5.60;;;5.10;;
58992;SDS011;44782;0.000;0.000;2023-03-03T09:13:16;6.10;;;5.60;;
58992;SDS011;44782;0.000;0.000;2023-03-03T09:15:36;5.83;;;5.23;;
58992;SDS011;44782;0.000;0.000;2023-03-03T09:17:52;5.60;;;5.20;;
58992;SDS011;44782;0.000;0.000;2023-03-03T09:20:31;5.77;;;5.27;;
58992;SDS011;44782;0.000;0.000;2023-03-03T09:23:28;5.30;;;4.83;;
58992;SDS011;44782;0.000;0.000;2023-03-03T09:25:56;5.57;;;5.17;;
58992;SDS011;44782;0.000;0.000;2023-03-03T09:28:24;5.77;;;5.27;;
58992;SDS011;44782;0.000;0.000;2023-03-03T09:30:44;5.57;;;5.07;;
58992;SDS011;44782;0.000;0.000;2023-03-03T09:33:18;5.40;;;5.00;;
58992;SDS011;44782;0.000;0.000;2023-03-03T09:43:17;5.90;;;5.40;;
58992;SDS011;44782;0.000;0.000;2023-03-03T09:46:11;5.90;;;5.40;;
58992;SDS011;44782;0.000;0.000;2023-03-03T09:48:43;5.30;;;4.90;;
58992;SDS011;44782;0.000;0.000;2023-03-03T09:56:16;5.57;;;5.17;;
58992;SDS011;44782;0.000;0.000;2023-03-03T10:14:08;5.63;;;5.13;;
58992;SDS011;44782;0.000;0.000;2023-03-03T10:19:08;6.20;;;5.70;;
58992;SDS011;44782;0.000;0.000;2023-03-03T10:21:35;5.50;;;5.00;;
58992;SDS011;44782;0.000;0.000;2023-03-03T10:29:22;5.47;;;4.97;;
58992;SDS011;44782;0.000;0.000;2023-03-03T10:34:02;5.70;;;5.20;;
58992;SDS011;44782;0.000;0.000;2023-03-03T10:59:36;4.90;;;4.50;;
58992;SDS011;44782;0.000;0.000;2023-03-03T11:02:18;4.90;;;4.50;;
58992;SDS011;44782;0.000;0.000;2023-03-03T11:04:50;5.03;;;4.63;;
58992;SDS011;44782;0.000;0.000;2023-03-03T11:07:52;4.73;;;4.33;;
58992;SDS011;44782;0.000;0.000;2023-03-03T11:12:54;5.10;;;4.70;;
58992;SDS011;44782;0.000;0.000;2023-03-03T11:15:28;4.77;;;4.37;;
58992;SDS011;44782;0.000;0.000;2023-03-03T11:25:33;5.27;;;4.77;;
58992;SDS011;44782;0.000;0.000;2023-03-03T11:38:00;4.70;;;4.30;;
58992;SDS011;44782;0.000;0.000;2023-03-03T11:40:31;4.90;;;4.50;;
58992;SDS011;44782;0.000;0.000;2023-03-03T11:43:13;4.83;;;4.43;;
58992;SDS011;44782;0.000;0.000;2023-03-03T11:45:38;5.27;;;4.77;;
58992;SDS011;44782;0.000;0.000;2023-03-03T11:48:10;4.97;;;4.57;;
58992;SDS011;44782;0.000;0.000;2023-03-03T11:50:41;4.90;;;4.40;;
58992;SDS011;44782;0.000;0.000;2023-03-03T11:53:16;4.47;;;4.17;;
58992;SDS011;44782;0.000;0.000;2023-03-03T11:55:41;4.70;;;4.30;;
58992;SDS011;44782;0.000;0.000;2023-03-03T11:58:07;4.53;;;4.13;;
58992;SDS011;44782;0.000;0.000;2023-03-03T12:00:40;4.90;;;4.50;;
58992;SDS011;44782;0.000;0.000;2023-03-03T12:03:10;4.73;;;4.37;;
58992;SDS011;44782;0.000;0.000;2023-03-03T12:06:39;4.60;;;4.20;;
58992;SDS011;44782;0.000;0.000;2023-03-03T12:08:39;4.73;;;4.33;;
58992;SDS011;44782;0.000;0.000;2023-03-03T12:13:39;4.57;;;4.17;;
58992;SDS011;44782;0.000;0.000;2023-03-03T12:26:01;4.60;;;4.20;;
58992;SDS011;44782;0.000;0.000;2023-03-03T12:28:29;4.80;;;4.40;;
58992;SDS011;44782;0.000;0.000;2023-03-03T12:41:39;4.63;;;4.23;;
58992;SDS011;44782;0.000;0.000;2023-03-03T12:46:45;3.90;;;3.60;;
58992;SDS011;44782;0.000;0.000;2023-03-03T12:49:27;4.30;;;4.00;;
58992;SDS011;44782;0.000;0.000;2023-03-03T12:54:29;4.50;;;4.10;;
58992;SDS011;44782;0.000;0.000;2023-03-03T13:05:10;4.37;;;3.97;;
58992;SDS011;44782;0.000;0.000;2023-03-03T13:15:30;4.77;;;3.73;;
58992;SDS011;44782;0.000;0.000;2023-03-03T13:21:44;3.93;;;3.63;;
58992;SDS011;44782;0.000;0.000;2023-03-03T13:31:25;3.97;;;3.67;;
58992;SDS011;44782;0.000;0.000;2023-03-03T13:33:52;4.03;;;3.73;;
58992;SDS011;44782;0.000;0.000;2023-03-03T13:36:10;3.93;;;3.63;;
58992;SDS011;44782;0.000;0.000;2023-03-03T13:38:30;4.23;;;3.93;;
58992;SDS011;44782;0.000;0.000;2023-03-03T13:48:27;4.17;;;3.80;;
58992;SDS011;44782;0.000;0.000;2023-03-03T13:53:59;4.00;;;3.70;;
58992;SDS011;44782;0.000;0.000;2023-03-03T14:02:00;4.00;;;3.70;;
58992;SDS011;44782;0.000;0.000;2023-03-03T14:06:54;3.53;;;3.23;;
58992;SDS011;44782;0.000;0.000;2023-03-03T14:12:13;3.60;;;3.30;;
58992;SDS011;44782;0.000;0.000;2023-03-03T14:14:46;4.23;;;3.83;;
58992;SDS011;44782;0.000;0.000;2023-03-03T14:20:18;3.80;;;3.50;;
58992;SDS011;44782;0.000;0.000;2023-03-03T14:25:11;3.90;;;3.37;;
58992;SDS011;44782;0.000;0.000;2023-03-03T14:32:36;3.80;;;3.50;;
58992;SDS011;44782;0.000;0.000;2023-03-03T14:34:56;4.07;;;3.70;;
58992;SDS011;44782;0.000;0.000;2023-03-03T14:37:21;3.93;;;3.60;;
58992;SDS011;44782;0.000;0.000;2023-03-03T14:39:59;3.60;;;3.30;;
58992;SDS011;44782;0.000;0.000;2023-03-03T14:44:53;4.00;;;3.60;;
58992;SDS011;44782;0.000;0.000;2023-03-03T14:49:30;4.07;;;3.77;;
58992;SDS011;44782;0.000;0.000;2023-03-03T14:51:47;3.60;;;3.30;;
58992;SDS011;44782;0.000;0.000;2023-03-03T14:54:07;4.07;;;3.77;;
58992;SDS011;44782;0.000;0.000;2023-03-03T14:56:32;4.13;;;3.73;;
58992;SDS011;44782;0.000;0.000;2023-03-03T14:58:50;4.30;;;4.00;;
58992;SDS011;44782;0.000;0.000;2023-03-03T15:01:12;3.80;;;3.50;;
58992;SDS011;44782;0.000;0.000;2023-03-03T15:03:31;4.10;;;3.60;;
58992;SDS011;44782;0.000;0.000;2023-03-03T15:05:54;3.87;;;3.57;;
58992;SDS011;44782;0.000;0.000;2023-03-03T15:08:12;4.10;;;3.80;;
58992;SDS011;44782;0.000;0.000;2023-03-03T15:12:48;4.13;;;3.83;;
58992;SDS011;44782;0.000;0.000;2023-03-03T15:17:26;4.57;;;3.93;;
58992;SDS011;44782;0.000;0.000;2023-03-03T15:25:08;3.97;;;3.67;;
58992;SDS011;44782;0.000;0.000;2023-03-03T15:30:24;4.53;;;3.90;;
58992;SDS011;44782;0.000;0.000;2023-03-03T15:40:48;4.07;;;3.77;;
58992;SDS011;44782;0.000;0.000;2023-03-03T15:45:46;4.27;;;3.97;;
58992;SDS011;44782;0.000;0.000;2023-03-03T15:50:43;3.90;;;3.60;;
58992;SDS011;44782;0.000;0.000;2023-03-03T15:55:51;4.50;;;4.10;;
58992;SDS011;44782;0.000;0.000;2023-03-03T16:01:56;4.53;;;4.13;;
58992;SDS011;44782;0.000;0.000;2023-03-03T16:03:52;4.67;;;4.27;;
58992;SDS011;44782;0.000;0.000;2023-03-03T16:09:00;4.23;;;3.93;;
58992;SDS011;44782;0.000;0.000;2023-03-03T16:17:01;4.37;;;3.97;;
58992;SDS011;44782;0.000;0.000;2023-03-03T16:19:40;4.63;;;4.23;;
58992;SDS011;44782;0.000;0.000;2023-03-03T16:34:54;4.30;;;4.00;;
58992;SDS011;44782;0.000;0.000;2023-03-03T16:37:35;3.90;;;3.60;;
58992;SDS011;44782;0.000;0.000;2023-03-03T16:40:08;4.33;;;3.70;;
58992;SDS011;44782;0.000;0.000;2023-03-03T16:42:26;4.90;;;3.83;;
58992;SDS011;44782;0.000;0.000;2023-03-03T16:50:09;4.07;;;3.77;;
58992;SDS011;44782;0.000;0.000;2023-03-03T16:52:37;3.93;;;3.63;;
58992;SDS011;44782;0.000;0.000;2023-03-03T17:03:33;4.47;;;3.60;;
58992;SDS011;44782;0.000;0.000;2023-03-03T17:05:57;4.20;;;3.80;;
58992;SDS011;44782;0.000;0.000;2023-03-03T17:24:19;4.00;;;3.60;;
58992;SDS011;44782;0.000;0.000;2023-03-03T17:29:27;3.70;;;3.40;;
58992;SDS011;44782;0.000;0.000;2023-03-03T17:34:11;4.77;;;3.80;;
58992;SDS011;44782;0.000;0.000;2023-03-03T17:36:57;3.40;;;3.20;;
58992;SDS011;44782;0.000;0.000;2023-03-03T17:47:03;4.00;;;3.60;;
58992;SDS011;44782;0.000;0.000;2023-03-03T17:52:02;4.87;;;3.30;;
58992;SDS011;44782;0.000;0.000;2023-03-03T18:15:10;3.50;;;3.20;;
58992;SDS011;44782;0.000;0.000;2023-03-03T18:22:49;3.80;;;3.50;;
58992;SDS011;44782;0.000;0.000;2023-03-03T18:25:10;3.73;;;3.40;;
58992;SDS011;44782;0.000;0.000;2023-03-03T18:27:35;3.47;;;3.20;;
58992;SDS011;44782;0.000;0.000;2023-03-03T18:32:22;3.93;;;3.20;;
58992;SDS011;44782;0.000;0.000;2023-03-03T18:34:39;3.70;;;3.40;;
58992;SDS011;44782;0.000;0.000;2023-03-03T18:39:46;3.73;;;3.20;;
58992;SDS011;44782;0.000;0.000;2023-03-03T18:44:31;4.07;;;3.50;;
58992;SDS011;44782;0.000;0.000;2023-03-03T18:46:47;3.23;;;3.03;;
58992;SDS011;44782;0.000;0.000;2023-03-03T18:49:06;3.80;;;3.17;;
58992;SDS011;44782;0.000;0.000;2023-03-03T18:54:00;3.60;;;3.30;;
58992;SDS011;44782;0.000;0.000;2023-03-03T18:56:43;3.80;;;3.50;;
58992;SDS011;44782;0.000;0.000;2023-03-03T19:01:45;3.83;;;3.50;;
58992;SDS011;44782;0.000;0.000;2023-03-03T19:04:14;3.47;;;3.17;;
58992;SDS011;44782;0.000;0.000;2023-03-03T19:08:52;4.07;;;3.50;;
58992;SDS011;44782;0.000;0.000;2023-03-03T19:11:29;4.90;;;3.30;;
58992;SDS011;44782;0.000;0.000;2023-03-03T19:16:40;3.93;;;3.33;;
58992;SDS011;44782;0.000;0.000;2023-03-03T19:18:57;3.43;;;3.13;;
58992;SDS011;44782;0.000;0.000;2023-03-03T19:28:41;3.93;;;3.40;;
58992;SDS011;44782;0.000;0.000;2023-03-03T19:31:15;4.87;;;3.60;;
58992;SDS011;44782;0.000;0.000;2023-03-03T19:36:16;6.00;;;3.67;;
58992;SDS011;44782;0.000;0.000;2023-03-03T19:38:56;4.63;;;3.27;;
58992;SDS011;44782;0.000;0.000;2023-03-03T20:12:22;3.70;;;3.27;;
58992;SDS011;44782;0.000;0.000;2023-03-03T20:15:11;3.90;;;3.30;;
58992;SDS011;44782;0.000;0.000;2023-03-03T20:20:06;3.30;;;3.03;;
58992;SDS011;44782;0.000;0.000;2023-03-03T20:22:47;3.60;;;3.30;;
58992;SDS011;44782;0.000;0.000;2023-03-03T20:33:18;4.00;;;3.07;;
58992;SDS011;44782;0.000;0.000;2023-03-03T20:35:39;3.40;;;3.20;;
58992;SDS011;44782;0.000;0.000;2023-03-03T20:38:28;4.13;;;3.30;;
58992;SDS011;44782;0.000;0.000;2023-03-03T20:43:58;4.10;;;3.40;;
58992;SDS011;44782;0.000;0.000;2023-03-03T20:52:02;3.53;;;3.20;;